Coeymans Hollow, New York
Current Conditions -  °F | °C
As of 7:51 PM on Saturday 20 Dec 2014 (Local Time) from KALB Reporting Station
Overcast Overcast  
Wind Chill: 28°   Ceiling: 4100
Heat Index: 28°   Visibility: 10mi
Dew Point: 20°   Wind: 3mph
Humidity: 72%   Direction: 350°N
Pressure: 30.31"   Gusts: NA
Location:  42.47°N, 73.89°W
Report Text: KALB 210051Z 35003KT 10SM BKN041 OVC070 M02/M07 A3031 RMK AO2 SLP270 T10221067
Loading
Personal Weather Stations






























Interactive Weather Map New forecast layout! Learn more

10-Day Weather Forecast

Advertisements
Track Severe Weather on mobile